Time;durP1;ratioP1;P1;durP2;ratioP2;P2;SDS_P1;SDS_P2;PMS_P1;PMS_P2;Temp;Humidity;BMP_temperature;BMP_pressure;BME280_temperature;BME280_humidity;BME280_pressure;Samples;Min_cycle;Max_cycle;Signal;HPM_P1;HPM_P2
2022/01/15 00:02:56;;;;;;;41.13;29.05;;;;;;;1.74;87.53;102376.47;5010902;28;20116;-63
2022/01/15 00:05:59;;;;;;;50.28;32.17;;;;;;;1.80;86.92;102375.69;5034542;28;20044;-63
2022/01/15 00:09:05;;;;;;;43.58;27.38;;;;;;;1.85;86.66;102377.47;5034047;28;20087;-63
2022/01/15 00:12:09;;;;;;;38.83;24.23;;;;;;;1.93;86.62;102382.72;5022192;28;20043;-63
2022/01/15 00:15:24;;;;;;;43.63;24.08;;;;;;;1.83;86.49;102374.00;5034397;28;20483;-63
2022/01/15 00:18:40;;;;;;;38.85;20.15;;;;;;;1.68;87.06;102372.94;5033884;28;20440;-62
2022/01/15 00:21:44;;;;;;;35.65;18.13;;;;;;;1.54;87.18;102368.44;5034162;28;20099;-63
2022/01/15 00:24:48;;;;;;;28.67;16.20;;;;;;;1.53;87.23;102368.41;5034171;28;20056;-63
2022/01/15 00:27:51;;;;;;;25.77;14.32;;;;;;;1.46;87.07;102370.03;5033905;28;20040;-63
2022/01/15 00:30:55;;;;;;;24.15;13.80;;;;;;;1.41;86.88;102365.69;5033987;28;20048;-63
2022/01/15 00:33:58;;;;;;;24.10;14.38;;;;;;;1.46;86.47;102375.19;5033592;28;20525;-62
2022/01/15 00:37:02;;;;;;;20.70;12.80;;;;;;;1.36;86.35;102368.16;5033951;28;20047;-62
2022/01/15 00:40:09;;;;;;;20.67;12.93;;;;;;;1.44;86.02;102376.03;5033701;28;20041;-63
2022/01/15 00:43:12;;;;;;;19.02;12.20;;;;;;;1.49;85.66;102375.22;5033839;28;20119;-63
2022/01/15 00:46:15;;;;;;;18.90;12.00;;;;;;;1.50;85.68;102366.69;5021282;28;20070;-63
2022/01/15 00:49:19;;;;;;;20.40;11.98;;;;;;;1.49;85.70;102364.91;5033429;28;20061;-62
2022/01/15 00:52:26;;;;;;;20.50;11.88;;;;;;;1.37;86.02;102359.59;5033730;28;20043;-62
2022/01/15 00:55:30;;;;;;;20.05;11.98;;;;;;;1.40;85.80;102354.47;5033517;28;20524;-63
2022/01/15 00:58:33;;;;;;;20.92;12.80;;;;;;;1.27;86.12;102352.56;5032401;28;20519;-62
2022/01/15 01:01:36;;;;;;;18.98;12.02;;;;;;;1.19;86.67;102349.00;5033325;28;20044;-63
2022/01/15 01:04:40;;;;;;;15.50;10.70;;;;;;;1.01;87.52;102345.28;5033500;28;20531;-63
2022/01/15 01:07:43;;;;;;;19.83;11.20;;;;;;;1.07;87.04;102336.78;5033069;28;20048;-62
2022/01/15 01:23:45;;;;;;;17.42;11.30;;;;;;;1.19;86.80;102341.28;5032972;28;20132;-62
2022/01/15 01:26:59;;;;;;;22.52;12.50;;;;;;;1.14;86.67;102336.91;5033182;28;20048;-62
2022/01/15 01:37:36;;;;;;;19.80;11.98;;;;;;;1.19;87.00;102336.13;5032795;28;20056;-63
2022/01/15 01:46:51;;;;;;;19.00;12.73;;;;;;;1.24;86.72;102342.22;5032943;28;20136;-62
2022/01/15 01:49:55;;;;;;;16.05;11.18;;;;;;;1.12;86.84;102343.75;5032635;28;20096;-62
2022/01/15 01:52:58;;;;;;;15.90;10.73;;;;;;;1.16;86.31;102335.22;5020781;28;20148;-63
2022/01/15 01:56:03;;;;;;;16.23;10.65;;;;;;;1.21;85.52;102332.72;5032897;28;20413;-63
2022/01/15 01:59:07;;;;;;;15.35;11.23;;;;;;;1.22;85.40;102341.34;5032592;28;20574;-63
2022/01/15 02:02:11;;;;;;;15.68;10.43;;;;;;;1.25;85.36;102338.81;5032552;28;20053;-62
2022/01/15 02:05:15;;;;;;;14.95;9.75;;;;;;;0.96;85.75;102334.06;5032856;28;20048;-62
2022/01/15 02:08:18;;;;;;;15.48;10.52;;;;;;;0.96;85.95;102331.47;5031725;28;20292;-62
2022/01/15 02:12:09;;;;;;;9.75;6.93;;;;;;;0.92;86.40;102334.81;5032846;28;20044;-63
2022/01/15 02:15:33;;;;;;;13.38;9.15;;;;;;;1.06;85.66;102328.22;5020105;28;20044;-62
2022/01/15 02:18:37;;;;;;;12.43;9.05;;;;;;;1.20;85.43;102325.84;5031579;28;20576;-63
2022/01/15 02:24:52;;;;;;;14.05;8.82;;;;;;;1.04;85.96;102323.88;5032668;28;20047;-63
2022/01/15 02:27:56;;;;;;;14.02;9.77;;;;;;;1.24;85.48;102331.91;5032626;28;20064;-62
2022/01/15 02:31:02;;;;;;;12.98;8.85;;;;;;;1.31;85.24;102321.72;5033855;28;20091;-62
2022/01/15 02:34:05;;;;;;;15.15;9.73;;;;;;;1.33;84.85;102312.28;5035220;28;20052;-63
2022/01/15 02:37:09;;;;;;;14.15;8.68;;;;;;;1.35;84.61;102315.75;5036166;28;20084;-62
2022/01/15 02:40:12;;;;;;;;;;;;;;;1.36;84.95;102317.47;5036617;28;20507;-62
2022/01/15 02:43:19;;;;;;;13.63;8.48;;;;;;;1.38;84.93;102315.81;5036168;28;20004;-62
2022/01/15 02:46:34;;;;;;;13.48;8.70;;;;;;;1.36;84.91;102301.16;5035964;28;20559;-62
2022/01/15 02:49:38;;;;;;;13.32;8.82;;;;;;;1.39;85.01;102296.03;5023356;28;20056;-63
2022/01/15 02:52:41;;;;;;;;;;;;;;;1.39;84.64;102302.06;5036102;28;20056;-62
2022/01/15 02:55:48;;;;;;;14.50;8.50;;;;;;;1.47;84.50;102302.19;5035931;28;19951;-63
2022/01/15 02:58:51;;;;;;;13.52;8.68;;;;;;;1.51;84.53;102301.38;5035594;28;20752;-63
2022/01/15 03:01:54;;;;;;;14.13;8.98;;;;;;;1.53;84.21;102302.28;5035780;28;20144;-62
2022/01/15 03:04:58;;;;;;;14.75;9.23;;;;;;;1.45;84.73;102297.84;5034953;28;20099;-62
2022/01/15 03:08:02;;;;;;;13.18;9.10;;;;;;;1.48;84.30;102301.34;5023444;28;20132;-62
2022/01/15 03:11:07;;;;;;;14.90;8.77;;;;;;;1.47;84.51;102284.16;5035762;28;20584;-63
2022/01/15 03:14:12;;;;;;;14.18;8.80;;;;;;;1.50;84.29;102279.03;5022890;28;20040;-62
2022/01/15 03:17:16;;;;;;;15.13;9.68;;;;;;;1.54;84.48;102280.78;5034301;28;20095;-63
2022/01/15 03:20:20;;;;;;;16.40;10.10;;;;;;;1.58;84.43;102282.56;5023253;28;20199;-63
2022/01/15 03:23:23;;;;;;;15.63;10.13;;;;;;;1.61;84.31;102274.00;5035373;28;20076;-63
2022/01/15 03:26:26;;;;;;;14.80;9.48;;;;;;;1.61;84.59;102272.28;5035419;28;20140;-63
2022/01/15 03:29:29;;;;;;;14.63;9.82;;;;;;;1.61;84.42;102272.28;5035254;28;20409;-62
2022/01/15 03:32:33;;;;;;;14.65;9.38;;;;;;;1.58;84.51;102267.09;5035012;28;20133;-62
2022/01/15 03:35:37;;;;;;;16.35;9.80;;;;;;;1.54;84.75;102269.63;5034761;28;20103;-62
2022/01/15 03:38:40;;;;;;;12.93;9.00;;;;;;;1.52;84.73;102267.00;5022551;28;20040;-63
2022/01/15 03:41:44;;;;;;;14.18;9.07;;;;;;;1.54;84.83;102260.16;5022688;28;20064;-63
2022/01/15 03:44:49;;;;;;;17.42;9.55;;;;;;;1.60;84.86;102260.25;5022526;28;20232;-62
2022/01/15 03:47:55;;;;;;;14.48;9.32;;;;;;;1.57;84.69;102260.22;5034908;28;20121;-62
2022/01/15 03:51:00;;;;;;;14.75;10.23;;;;;;;1.56;85.19;102265.31;5034821;28;20444;-63
2022/01/15 03:54:03;;;;;;;15.77;9.85;;;;;;;1.62;84.94;102258.53;5034744;28;20043;-62
2022/01/15 03:57:07;;;;;;;16.63;10.70;;;;;;;1.70;84.74;102257.78;5034677;28;20456;-63
2022/01/15 04:00:18;;;;;;;16.70;10.38;;;;;;;1.60;84.80;102249.94;5022282;28;20103;-63
2022/01/15 04:03:22;;;;;;;17.33;11.93;;;;;;;1.57;85.30;102247.31;5034530;28;20099;-62
2022/01/15 04:06:25;;;;;;;16.52;10.07;;;;;;;1.52;85.54;102241.22;5034526;28;20072;-63
2022/01/15 04:09:28;;;;;;;19.33;11.52;;;;;;;1.53;85.63;102242.97;5034475;28;20183;-63
2022/01/15 04:12:32;;;;;;;18.17;10.57;;;;;;;1.62;85.57;102247.34;5022192;28;20104;-63
2022/01/15 04:15:35;;;;;;;17.52;10.60;;;;;;;1.65;85.89;102246.53;5022156;28;20551;-63
2022/01/15 04:18:41;;;;;;;18.77;11.27;;;;;;;1.59;86.28;102231.84;5034170;28;20536;-62
2022/01/15 04:21:44;;;;;;;18.08;10.32;;;;;;;1.63;86.45;102238.78;5034264;28;20045;-63
2022/01/15 04:24:47;;;;;;;21.25;11.25;;;;;;;1.59;86.78;102222.41;5034172;28;20451;-62
2022/01/15 04:27:50;;;;;;;21.63;11.88;;;;;;;1.65;86.77;102225.91;5033214;28;20404;-63
2022/01/15 04:30:54;;;;;;;19.42;11.38;;;;;;;1.52;86.96;102225.75;5034014;28;20107;-62
2022/01/15 04:33:57;;;;;;;;;;;;;;;1.56;87.24;102227.53;5034213;28;20516;-62
2022/01/15 04:37:57;;;;;;;21.30;11.85;;;;;;;1.53;87.48;102227.50;5034079;28;20040;-62
2022/01/15 04:41:00;;;;;;;26.02;13.68;;;;;;;1.57;87.09;102221.53;5032902;28;20114;-62
2022/01/15 04:44:04;;;;;;;;;;;;;;;1.61;87.02;102219.84;5034309;28;20075;-63
2022/01/15 04:47:08;;;;;;;23.95;12.52;;;;;;;1.55;87.32;102224.94;5033808;28;19935;-63
2022/01/15 04:50:16;;;;;;;22.45;12.23;;;;;;;1.59;87.21;102219.81;5033687;28;20044;-63
2022/01/15 04:53:19;;;;;;;21.10;11.38;;;;;;;1.60;87.04;102213.84;5033703;28;20052;-63
2022/01/15 04:56:23;;;;;;;;;;;;;;;1.55;87.08;102205.16;5033756;28;20064;-62
2022/01/15 04:59:26;;;;;;;15.88;10.02;;;;;;;1.55;87.52;102210.31;5033421;28;20014;-62
2022/01/15 05:02:30;;;;;;;21.42;11.98;;;;;;;1.54;87.50;102206.03;5033564;28;20111;-63
2022/01/15 05:05:33;;;;;;;;;;;;;;;1.67;87.31;102203.59;5033859;28;20044;-63
2022/01/15 05:08:37;;;;;;;21.77;11.57;;;;;;;1.60;87.08;102203.53;5033468;28;20060;-62
2022/01/15 05:11:48;;;;;;;;;;;;;;;1.60;86.93;102203.53;5033878;28;20064;-63
2022/01/15 05:14:51;;;;;;;24.90;13.30;;;;;;;1.66;87.21;102201.84;5033322;28;19920;-62
2022/01/15 05:17:55;;;;;;;23.13;12.48;;;;;;;1.62;87.20;102206.97;5032996;28;20127;-63
2022/01/15 05:20:58;;;;;;;20.27;11.90;;;;;;;1.73;86.87;102195.94;5033273;28;20040;-63
2022/01/15 05:24:01;;;;;;;23.35;12.25;;;;;;;1.79;86.98;102199.44;5033173;28;20047;-63
2022/01/15 05:27:04;;;;;;;19.98;11.93;;;;;;;1.75;86.78;102189.91;5033217;28;20056;-63
2022/01/15 05:36:31;;;;;;;14.77;9.25;;;;;;;1.60;87.59;102182.91;5090296;28;20052;-75
2022/01/15 05:39:34;;;;;;;19.55;11.02;;;;;;;1.59;87.88;102186.31;5093165;28;20086;-74
2022/01/15 05:42:38;;;;;;;18.90;11.05;;;;;;;1.60;87.71;102188.06;5093174;28;20093;-74
2022/01/15 05:45:41;;;;;;;20.58;11.60;;;;;;;1.62;87.64;102185.47;5092936;28;20104;-75
2022/01/15 05:48:44;;;;;;;;;;;;;;;1.68;87.56;102190.72;5093502;28;20050;-75
2022/01/15 05:51:47;;;;;;;17.35;10.93;;;;;;;1.61;87.36;102184.63;5092965;28;19966;-74
2022/01/15 05:54:50;;;;;;;17.70;11.43;;;;;;;1.62;87.76;102183.75;5091877;28;20131;-75
2022/01/15 05:58:19;;;;;;;20.17;10.45;;;;;;;1.69;87.45;102188.97;5092862;28;20082;-75
2022/01/15 06:01:22;;;;;;;17.15;9.82;;;;;;;1.65;87.30;102184.66;5068373;28;20138;-75
2022/01/15 06:04:28;;;;;;;17.52;11.13;;;;;;;1.65;87.62;102185.50;5091893;28;20635;-76
2022/01/15 06:07:33;;;;;;;18.25;10.73;;;;;;;1.60;87.39;102189.78;5079214;28;20069;-75
2022/01/15 06:10:38;;;;;;;17.60;10.55;;;;;;;1.66;87.52;102186.38;5093314;28;20050;-75
2022/01/15 06:13:42;;;;;;;16.50;10.57;;;;;;;1.61;87.62;102183.75;5080383;28;20785;-75
2022/01/15 06:16:47;;;;;;;19.00;12.45;;;;;;;1.63;87.33;102182.94;5079457;28;20092;-74
2022/01/15 06:19:51;;;;;;;23.52;11.13;;;;;;;1.63;87.31;102182.06;5078945;28;20510;-75
2022/01/15 06:22:54;;;;;;;16.98;10.38;;;;;;;1.75;86.90;102181.31;5079845;28;20542;-75
2022/01/15 06:25:58;;;;;;;;;;;;;;;1.76;86.63;102177.91;5080643;28;20470;-74
2022/01/15 06:29:02;;;;;;;18.45;10.60;;;;;;;1.71;86.86;102183.00;5080136;28;20374;-75
2022/01/15 06:33:02;;;;;;;14.40;9.13;;;;;;;1.72;87.19;102176.13;5080312;28;20042;-75
2022/01/15 06:37:00;;;;;;;14.77;9.02;;;;;;;1.78;86.69;102184.78;5091713;28;20125;-75
2022/01/15 06:40:59;;;;;;;14.15;8.25;;;;;;;1.79;85.98;102185.69;5091637;28;20131;-75
2022/01/15 06:48:58;;;;;;;13.70;8.55;;;;;;;1.74;86.81;102179.59;5092431;28;20059;-75
2022/01/15 06:52:28;;;;;;;13.07;7.45;;;;;;;1.77;86.34;102169.31;5079436;28;20047;-75
2022/01/15 06:55:31;;;;;;;12.35;7.72;;;;;;;1.80;86.14;102170.22;5078044;28;20042;-75
2022/01/15 06:58:34;;;;;;;13.50;8.15;;;;;;;1.83;85.98;102172.81;5090746;28;20503;-75
2022/01/15 07:01:38;;;;;;;12.60;7.60;;;;;;;1.86;85.96;102169.41;5092579;28;20106;-75
2022/01/15 07:04:41;;;;;;;12.65;8.02;;;;;;;1.78;85.90;102166.75;5092103;28;20198;-75
2022/01/15 07:07:46;;;;;;;13.95;7.82;;;;;;;1.81;85.91;102171.94;5091808;28;20101;-75
2022/01/15 07:10:49;;;;;;;10.25;6.40;;;;;;;1.76;86.21;102158.13;5091515;28;20402;-75
2022/01/15 07:13:53;;;;;;;11.07;6.68;;;;;;;1.76;86.13;102162.44;5073108;28;20100;-76
2022/01/15 07:16:56;;;;;;;8.30;5.85;;;;;;;1.78;86.06;102171.03;5098668;28;20418;-75
2022/01/15 07:19:59;;;;;;;10.65;7.20;;;;;;;1.82;85.62;102170.25;5112404;28;20061;-75
2022/01/15 07:23:02;;;;;;;;;;;;;;;1.85;85.72;102177.97;5100413;28;20054;-75
2022/01/15 07:26:06;;;;;;;8.48;6.00;;;;;;;1.84;85.34;102169.38;5078978;28;20406;-75
2022/01/15 07:29:14;;;;;;;8.10;5.82;;;;;;;1.84;85.09;102171.97;5078613;28;20046;-75
2022/01/15 08:03:12;;;;;;;9.82;6.40;;;;;;;1.82;85.44;102165.09;5081858;28;20395;-75
2022/01/15 08:06:16;;;;;;;;;;;;;;;1.81;85.44;102160.75;5095140;28;20043;-75
2022/01/15 08:09:19;;;;;;;10.43;6.45;;;;;;;1.85;85.32;102157.34;5094657;28;20274;-75
2022/01/15 08:12:22;;;;;;;9.50;6.57;;;;;;;1.89;85.10;102160.84;5094649;28;20070;-75
2022/01/15 08:15:26;;;;;;;11.95;7.35;;;;;;;1.91;84.96;102165.16;5094549;28;20403;-75
2022/01/15 08:18:29;;;;;;;13.73;7.43;;;;;;;1.84;85.02;102158.19;5094260;28;20051;-75
2022/01/15 08:21:33;;;;;;;11.80;8.05;;;;;;;1.85;84.98;102152.19;5094472;28;20080;-75
2022/01/15 08:24:39;;;;;;;19.83;11.30;;;;;;;1.85;85.29;102147.03;5093327;28;20128;-75
2022/01/15 08:27:42;;;;;;;14.98;9.40;;;;;;;1.87;85.28;102150.50;5094290;28;20498;-75
2022/01/15 08:30:45;;;;;;;15.45;9.50;;;;;;;1.93;85.27;102145.41;5094368;28;20474;-75
2022/01/15 08:33:49;;;;;;;9.32;6.18;;;;;;;1.89;84.89;102147.94;5093305;28;20063;-75
2022/01/15 08:36:52;;;;;;;10.00;6.65;;;;;;;1.94;84.89;102157.44;5093327;28;20043;-75
2022/01/15 08:39:55;;;;;;;14.15;6.90;;;;;;;1.88;84.89;102147.06;5081649;28;20103;-75
2022/01/15 08:43:00;;;;;;;16.35;10.63;;;;;;;1.96;84.79;102147.16;5081529;28;20062;-75
2022/01/15 08:46:03;;;;;;;10.52;6.57;;;;;;;1.98;84.94;102143.75;5093981;28;20084;-75
2022/01/15 08:49:06;;;;;;;9.65;6.43;;;;;;;2.05;84.88;102142.94;5081407;28;20047;-75
2022/01/15 08:52:09;;;;;;;10.15;6.10;;;;;;;2.01;84.75;102143.78;5081338;28;20074;-75
2022/01/15 08:55:14;;;;;;;10.70;6.50;;;;;;;2.01;84.70;102141.19;5093861;28;20129;-75
2022/01/15 08:58:19;;;;;;;10.82;6.88;;;;;;;2.05;84.51;102144.66;5080784;28;20046;-75
2022/01/15 09:01:22;;;;;;;10.15;7.05;;;;;;;2.09;84.41;102144.69;5105441;28;20051;-75
2022/01/15 09:04:26;;;;;;;8.15;6.00;;;;;;;2.08;84.29;102145.53;5101513;28;20434;-75
2022/01/15 09:07:29;;;;;;;10.57;7.22;;;;;;;1.99;84.42;102145.47;5089638;28;20078;-75
2022/01/15 09:10:33;;;;;;;8.57;5.70;;;;;;;1.85;85.16;102142.75;5113989;28;20117;-74
2022/01/15 09:13:36;;;;;;;8.43;6.10;;;;;;;1.96;85.31;102140.28;5089579;28;20119;-75
2022/01/15 09:16:40;;;;;;;8.77;6.22;;;;;;;1.99;84.85;102142.88;5113810;28;20098;-75
2022/01/15 09:19:43;;;;;;;9.02;6.10;;;;;;;2.05;84.68;102140.34;5087880;28;20101;-75
2022/01/15 09:22:46;;;;;;;8.50;6.30;;;;;;;2.08;84.89;102139.53;5113031;28;20067;-75
2022/01/15 09:25:50;;;;;;;9.77;6.70;;;;;;;2.01;85.00;102132.56;5101215;28;20082;-75
2022/01/15 09:32:15;;;;;;;9.45;6.07;;;;;;;2.09;84.36;102139.53;5089099;28;20097;-75
2022/01/15 09:35:21;;;;;;;8.32;5.50;;;;;;;2.14;83.84;102139.56;5101058;28;20473;-75
2022/01/15 09:38:25;;;;;;;8.15;5.95;;;;;;;2.12;84.32;102130.09;5100646;28;20128;-75
2022/01/15 09:41:28;;;;;;;;;;;;;;;2.18;83.81;102124.97;5089290;28;20398;-75
2022/01/15 09:44:33;;;;;;;9.20;6.70;;;;;;;2.02;84.19;102124.00;5100975;28;20365;-74
2022/01/15 09:47:37;;;;;;;8.32;5.32;;;;;;;2.05;84.01;102124.88;5100793;28;20402;-75
2022/01/15 09:50:43;;;;;;;7.88;5.72;;;;;;;2.10;84.05;102122.31;5089012;28;20108;-75
2022/01/15 09:53:47;;;;;;;8.38;5.60;;;;;;;2.18;83.73;102122.41;5089224;28;20050;-75
2022/01/15 09:56:51;;;;;;;8.40;5.60;;;;;;;2.07;84.38;102130.91;5100511;28;20521;-74
2022/01/15 09:59:54;;;;;;;9.77;5.75;;;;;;;2.17;84.04;102124.13;5088877;28;20105;-74
2022/01/15 10:02:57;;;;;;;7.45;5.38;;;;;;;2.16;83.47;102118.94;5100636;28;20101;-74
2022/01/15 10:06:05;;;;;;;7.40;5.22;;;;;;;1.95;84.62;102117.06;5100662;28;20045;-74
2022/01/15 10:09:09;;;;;;;7.22;5.35;;;;;;;2.14;84.06;102115.47;5089037;28;20046;-74
2022/01/15 10:12:24;;;;;;;7.53;5.25;;;;;;;2.22;83.71;102113.81;5100458;28;20050;-74
2022/01/15 10:15:27;;;;;;;6.55;4.50;;;;;;;2.24;83.58;102119.88;5113259;28;20093;-74
2022/01/15 10:18:33;;;;;;;7.03;5.25;;;;;;;2.31;83.43;102126.81;5112961;28;20042;-74
2022/01/15 10:21:37;;;;;;;7.63;5.28;;;;;;;2.32;83.38;102123.34;5100617;28;20123;-75
2022/01/15 10:24:49;;;;;;;10.68;5.57;;;;;;;2.20;83.51;102126.72;5100475;28;20050;-75
2022/01/15 10:27:56;;;;;;;7.80;5.25;;;;;;;2.21;84.08;102112.09;5113095;28;20108;-75
2022/01/15 10:31:17;;;;;;;8.48;5.72;;;;;;;2.23;83.91;102112.97;5113078;28;20556;-75
2022/01/15 10:34:37;;;;;;;9.27;6.45;;;;;;;2.21;83.84;102099.19;5088666;28;20094;-75
2022/01/15 10:38:18;;;;;;;8.88;5.88;;;;;;;2.18;84.41;102094.00;5088663;28;20553;-74
2022/01/15 10:41:36;;;;;;;8.48;5.78;;;;;;;2.27;83.88;102089.78;5077151;28;20082;-74
2022/01/15 10:44:39;;;;;;;6.88;4.93;;;;;;;2.21;84.32;102089.72;5100294;28;20097;-75
2022/01/15 10:47:49;;;;;;;6.07;4.88;;;;;;;2.23;83.96;102093.16;5112842;28;20089;-75
2022/01/15 10:51:00;;;;;;;7.60;5.13;;;;;;;2.35;83.50;102082.06;5088557;28;20414;-74
2022/01/15 10:54:03;;;;;;;7.00;5.22;;;;;;;2.12;84.47;102087.09;5103135;28;20046;-75
2022/01/15 10:57:09;;;;;;;8.30;5.15;;;;;;;2.23;83.65;102082.00;5103878;28;20394;-75
2022/01/15 11:00:22;;;;;;;7.28;5.10;;;;;;;2.21;84.13;102082.00;5103755;28;20529;-75
2022/01/15 11:04:03;;;;;;;7.72;4.00;;;;;;;2.18;83.97;102078.53;5091958;28;20071;-75
2022/01/15 11:07:14;;;;;;;8.45;5.30;;;;;;;2.17;83.78;102076.78;5104048;28;20065;-74
2022/01/15 11:10:41;;;;;;;6.63;4.57;;;;;;;2.16;83.83;102064.75;5116343;28;20123;-74
2022/01/15 11:13:47;;;;;;;6.22;4.35;;;;;;;2.14;84.08;102058.69;5102641;28;20509;-74
2022/01/15 11:16:51;;;;;;;8.55;5.50;;;;;;;2.18;83.80;102050.16;5102792;28;20416;-75
2022/01/15 11:19:54;;;;;;;6.07;4.65;;;;;;;2.07;84.82;102053.53;5102183;28;20050;-75
2022/01/15 11:23:02;;;;;;;7.55;5.30;;;;;;;2.05;85.15;102060.38;5091403;28;20109;-75
2022/01/15 11:26:08;;;;;;;6.97;4.97;;;;;;;1.89;85.44;102049.94;5103321;28;20394;-75
2022/01/15 11:29:11;;;;;;;9.00;5.53;;;;;;;1.93;85.72;102047.38;5115856;28;20039;-75
2022/01/15 11:32:15;;;;;;;8.13;5.47;;;;;;;2.13;84.79;102038.91;5091351;28;20082;-75
2022/01/15 11:35:18;;;;;;;7.55;5.18;;;;;;;1.99;84.94;102038.81;5091482;28;20564;-75
2022/01/15 11:38:46;;;;;;;8.70;5.75;;;;;;;2.17;84.76;102033.81;5115540;28;20039;-75
2022/01/15 11:41:53;;;;;;;8.52;5.30;;;;;;;2.23;84.25;102028.66;5115388;28;20101;-75
2022/01/15 11:44:56;;;;;;;8.30;5.32;;;;;;;2.17;84.96;102035.50;5115475;28;20121;-75
2022/01/15 11:48:26;;;;;;;7.25;4.90;;;;;;;2.27;84.36;102011.50;5102776;28;20122;-75
2022/01/15 11:51:29;;;;;;;8.45;4.65;;;;;;;2.28;84.21;102003.75;5102763;28;20437;-75
2022/01/15 11:54:33;;;;;;;6.28;4.70;;;;;;;2.20;84.12;102005.44;5115295;28;20092;-75
2022/01/15 11:57:45;;;;;;;6.15;4.03;;;;;;;2.22;84.26;101998.53;5102215;28;20493;-75
2022/01/15 12:00:48;;;;;;;7.75;5.10;;;;;;;2.31;84.15;101998.59;5102334;28;20051;-75
2022/01/15 12:03:51;;;;;;;8.25;4.43;;;;;;;2.31;83.96;101993.44;5090556;28;20051;-75
2022/01/15 12:07:01;;;;;;;5.82;4.32;;;;;;;2.19;84.41;101997.66;5115146;28;20062;-75
2022/01/15 12:10:46;;;;;;;7.03;4.63;;;;;;;2.25;83.82;101997.69;5102192;28;20481;-74
2022/01/15 12:13:54;;;;;;;7.63;4.85;;;;;;;2.30;84.15;101996.88;5114269;28;20042;-74
2022/01/15 12:17:42;;;;;;;8.43;4.95;;;;;;;2.37;83.59;101991.75;5090365;28;20074;-74
2022/01/15 12:20:54;;;;;;;5.78;4.10;;;;;;;2.44;83.35;101996.94;5102150;28;20042;-74
2022/01/15 12:24:36;;;;;;;6.30;4.47;;;;;;;2.45;83.28;101998.66;5090560;28;20478;-74
2022/01/15 12:27:42;;;;;;;5.90;3.90;;;;;;;2.41;83.41;102002.09;5101351;28;20076;-74
2022/01/15 12:30:51;;;;;;;5.95;4.25;;;;;;;2.48;83.34;101990.94;5102075;28;20046;-74
2022/01/15 12:34:01;;;;;;;6.97;4.63;;;;;;;2.15;84.22;101983.03;5078749;28;20174;-75
2022/01/15 12:37:14;;;;;;;7.78;4.93;;;;;;;2.07;84.30;101982.97;5113997;28;20062;-74
2022/01/15 12:40:22;;;;;;;5.78;4.07;;;;;;;2.28;83.93;101980.50;5114512;28;20545;-74
2022/01/15 12:43:31;;;;;;;7.65;5.07;;;;;;;2.32;84.01;101973.66;5077984;28;20038;-74
2022/01/15 12:46:34;;;;;;;6.85;4.97;;;;;;;2.30;84.01;101967.63;5100109;28;20134;-74
2022/01/15 12:49:38;;;;;;;8.93;5.40;;;;;;;2.36;83.93;101964.19;5114312;28;20518;-75
2022/01/15 12:52:42;;;;;;;9.00;5.13;;;;;;;2.48;83.46;101951.34;5101668;28;20092;-75
2022/01/15 12:55:45;;;;;;;;;;;;;;;2.49;83.44;101951.38;5090101;28;20127;-75
2022/01/15 12:58:52;;;;;;;7.28;5.25;;;;;;;2.52;82.86;101951.38;5101285;28;20018;-75
2022/01/15 13:01:55;;;;;;;10.60;6.90;;;;;;;2.53;83.06;101940.19;5113648;28;20049;-75
2022/01/15 13:04:59;;;;;;;8.25;5.70;;;;;;;2.54;83.00;101939.31;5101417;28;20567;-75
2022/01/15 13:08:05;;;;;;;;;;;;;;;2.56;82.75;101937.63;5101728;28;20042;-75
2022/01/15 13:14:16;;;;;;;9.35;6.35;;;;;;;2.45;83.85;101928.94;5113932;28;20097;-74
2022/01/15 13:17:25;;;;;;;9.65;7.53;;;;;;;2.53;83.69;101924.69;5089244;28;20545;-74
2022/01/15 13:20:34;;;;;;;9.52;6.82;;;;;;;2.55;83.28;101912.66;5089450;28;20050;-75
2022/01/15 13:23:43;;;;;;;9.38;7.03;;;;;;;2.43;83.67;101920.38;5100821;28;20398;-75
2022/01/15 13:26:47;;;;;;;10.85;7.22;;;;;;;2.50;83.27;101916.94;5089522;28;20097;-74
2022/01/15 13:29:51;;;;;;;10.52;7.32;;;;;;;2.44;83.39;101919.50;5089331;28;20046;-75
2022/01/15 13:32:57;;;;;;;10.63;7.85;;;;;;;2.43;83.45;101910.03;5089196;28;20042;-75
2022/01/15 13:36:05;;;;;;;9.93;7.78;;;;;;;2.50;83.65;101906.59;5077698;28;20046;-75
2022/01/15 13:39:09;;;;;;;12.23;7.72;;;;;;;2.55;83.35;101910.06;5113272;28;20100;-75
2022/01/15 13:42:18;;;;;;;12.40;8.40;;;;;;;2.57;83.41;101904.91;5100996;28;20097;-74
2022/01/15 13:45:22;;;;;;;10.80;7.40;;;;;;;2.42;84.32;101902.28;5100859;28;20046;-75
2022/01/15 13:48:28;;;;;;;11.60;8.63;;;;;;;2.44;83.81;101895.41;5089008;28;20462;-74
2022/01/15 13:55:07;;;;;;;11.52;7.28;;;;;;;2.32;84.69;101891.91;5089009;28;20046;-74
2022/01/15 13:58:13;;;;;;;10.38;7.32;;;;;;;2.42;84.33;101891.94;5100721;28;20501;-74
2022/01/15 14:01:18;;;;;;;9.32;6.80;;;;;;;2.46;84.44;101881.66;5088597;28;20062;-75
2022/01/15 14:04:30;;;;;;;10.18;7.38;;;;;;;2.51;84.36;101876.47;5113327;28;20048;-75
2022/01/15 14:07:37;;;;;;;10.18;7.43;;;;;;;2.33;84.90;101872.16;5100760;28;20051;-74
2022/01/15 14:10:42;;;;;;;9.65;7.30;;;;;;;2.39;84.50;101871.28;5088707;28;20062;-74
2022/01/15 14:13:45;;;;;;;11.40;8.05;;;;;;;2.43;84.34;101873.88;5077080;28;20101;-75
2022/01/15 14:16:56;;;;;;;10.13;7.80;;;;;;;2.34;84.64;101863.53;5100585;28;20050;-74
2022/01/15 14:20:38;;;;;;;10.32;6.85;;;;;;;2.41;84.31;101854.09;5088922;28;20039;-75
2022/01/15 14:23:41;;;;;;;10.85;7.82;;;;;;;2.39;84.60;101850.63;5088827;28;20330;-74
2022/01/15 14:26:45;;;;;;;;;;;;;;;2.36;84.98;101848.03;5114542;28;20173;-74
2022/01/15 14:34:55;;;;;;;6.93;5.18;;;;;;;2.35;84.53;101849.75;5116520;28;20061;-75
2022/01/15 14:37:59;;;;;;;8.48;6.43;;;;;;;2.34;84.95;101848.06;5090036;28;20525;-75
2022/01/15 14:41:03;;;;;;;8.45;6.93;;;;;;;2.36;84.85;101846.31;5103660;28;20046;-74
2022/01/15 14:44:06;;;;;;;7.93;5.80;;;;;;;2.35;84.99;101838.56;5115657;28;20047;-74
2022/01/15 14:47:09;;;;;;;7.55;5.75;;;;;;;2.43;85.38;101835.16;5091363;28;20184;-74
2022/01/15 14:50:14;;;;;;;9.50;5.97;;;;;;;2.47;84.56;101836.88;5080178;28;20089;-74
2022/01/15 14:53:17;;;;;;;7.57;5.75;;;;;;;2.53;84.69;101842.06;5102746;28;20046;-74
2022/01/15 14:56:20;;;;;;;;;;;;;;;2.39;84.99;101837.72;5104013;28;20046;-75
2022/01/15 14:59:24;;;;;;;8.48;5.72;;;;;;;2.53;84.95;101829.16;5116268;28;19922;-74
2022/01/15 15:06:39;;;;;;;8.32;5.65;;;;;;;2.51;84.71;101820.53;5114771;28;20424;-74
2022/01/15 15:09:43;;;;;;;7.35;5.13;;;;;;;2.55;84.45;101817.13;5103152;28;20039;-74
2022/01/15 15:12:54;;;;;;;7.03;5.70;;;;;;;2.57;84.46;101822.28;5115575;28;20078;-74
2022/01/15 15:15:57;;;;;;;7.78;4.95;;;;;;;2.63;84.07;101813.69;5114752;28;20107;-74
2022/01/15 15:19:01;;;;;;;7.90;6.22;;;;;;;2.69;84.56;101813.69;5115272;28;20456;-74
2022/01/15 15:22:04;;;;;;;;;;;;;;;2.65;83.56;101822.28;5103428;28;20616;-74
2022/01/15 15:25:10;;;;;;;7.35;5.20;;;;;;;2.62;83.80;101822.31;5100925;28;20386;-74
2022/01/15 15:28:14;;;;;;;7.47;5.18;;;;;;;2.62;83.59;101820.56;5102546;28;20494;-74
2022/01/15 15:31:17;;;;;;;9.48;5.82;;;;;;;2.41;84.51;101818.81;5103033;28;20527;-75
2022/01/15 15:34:20;;;;;;;;;;;;;;;2.42;84.48;101823.09;5080326;28;20126;-74
2022/01/15 15:37:23;;;;;;;7.03;4.55;;;;;;;2.46;84.63;101811.94;5102964;28;19918;-74
2022/01/15 15:40:27;;;;;;;7.25;4.20;;;;;;;2.41;84.64;101808.47;5102906;28;20506;-74
2022/01/15 15:43:30;;;;;;;7.40;4.53;;;;;;;2.19;85.48;101809.28;5079680;28;20046;-74
2022/01/15 15:46:34;;;;;;;6.90;4.28;;;;;;;2.33;85.30;101805.91;5090517;28;20046;-74
2022/01/15 15:56:47;;;;;;;7.20;4.30;;;;;;;2.47;84.40;101805.91;5032211;28;20053;-67
2022/01/15 15:59:54;;;;;;;5.40;4.05;;;;;;;2.43;84.32;101801.59;5022156;28;20053;-68
2022/01/15 16:23:44;;;;;;;8.32;5.40;;;;;;;2.44;84.46;101794.72;5031625;28;20075;-81
2022/01/15 16:26:48;;;;;;;6.30;4.38;;;;;;;2.50;84.52;101789.56;5034083;28;20069;-81
2022/01/15 16:29:52;;;;;;;7.28;5.38;;;;;;;2.49;84.67;101793.00;5021039;28;20048;-81
2022/01/15 16:32:56;;;;;;;6.93;5.43;;;;;;;2.53;84.47;101799.91;5021857;28;20503;-81
2022/01/15 16:36:01;;;;;;;7.53;4.55;;;;;;;2.52;84.72;101806.78;5034144;28;20051;-81
2022/01/15 16:39:05;;;;;;;7.05;4.65;;;;;;;2.58;84.53;101805.06;5021575;28;20116;-81